TTPP/POS METAR and TAF weather

Enter ICAO airport designator
Station Type Date Time Source
TTPP METAR 2020/07/11 04:00 UTC NOAA

TTPP 110400Z 10006KT 9999 FEW016 26/23 Q1014 NOSIG RMK DUST HAZE


Station Type Date Time Source
TTPP Decoded METAR 2020/07/11 04:00 UTC NOAA

Piarco International Airport, Trinidad, Trinidad and Tobago (TTPP) 10-37N 061-21W 15M
Jul 11, 2020 - 12:00 AM EDT / 2020.07.11 0400 UTC
Wind: from the E (100 degrees) at 7 MPH (6 KT):0
Visibility: greater than 7 mile(s):0
Sky conditions: mostly clear
Temperature: 78 F (26 C)
Dew Point: 73 F (23 C)
Relative Humidity: 83%
Pressure (altimeter): 29.94 in. Hg (1014 hPa)
ob: TTPP 110400Z 10006KT 9999 FEW016 26/23 Q1014 NOSIG RMK DUST HAZE
cycle: 4

Station Type Date Time Source
TTPP TAF 2020/07/11 06:27 UTC NOAA

TAF TTPP 110400Z 1106/1206 11005KT 9999 FEW012CB SCT016
TEMPO 1106/1111 5000 SHRA PROB30
TEMPO 1106/1111 11010G25KT 2000 TSRA SCT010CB BKN014
BECMG 1112/1114 11015KT SCT018
TEMPO 1116/1206 11015G25KT 5000 SHRA PROB40
TEMPO 1118/1204 2000 TSRA SCT010CB BKN016

Example: see airport list